sensor_id;sensor_type;location;lat;lon;timestamp;P1;durP1;ratioP1;P2;durP2;ratioP2
14100;SDS011;7127;49.372;8.166;2023-08-17T00:00:50;1.10;;;0.60;;
14100;SDS011;7127;49.372;8.166;2023-08-17T00:03:17;0.80;;;0.80;;
14100;SDS011;7127;49.372;8.166;2023-08-17T00:05:44;1.07;;;1.00;;
14100;SDS011;7127;49.372;8.166;2023-08-17T00:08:11;1.00;;;0.90;;
14100;SDS011;7127;49.372;8.166;2023-08-17T00:10:37;0.90;;;0.90;;
14100;SDS011;7127;49.372;8.166;2023-08-17T00:13:04;1.20;;;0.93;;
14100;SDS011;7127;49.372;8.166;2023-08-17T00:15:33;0.70;;;0.70;;
14100;SDS011;7127;49.372;8.166;2023-08-17T00:18:00;0.83;;;0.80;;
14100;SDS011;7127;49.372;8.166;2023-08-17T00:20:27;0.83;;;0.77;;
14100;SDS011;7127;49.372;8.166;2023-08-17T00:22:53;1.00;;;0.90;;
14100;SDS011;7127;49.372;8.166;2023-08-17T00:25:20;1.47;;;0.80;;
14100;SDS011;7127;49.372;8.166;2023-08-17T00:27:47;0.93;;;0.93;;
14100;SDS011;7127;49.372;8.166;2023-08-17T00:30:14;0.60;;;0.60;;
14100;SDS011;7127;49.372;8.166;2023-08-17T00:32:42;1.33;;;0.90;;
14100;SDS011;7127;49.372;8.166;2023-08-17T00:35:09;0.77;;;0.77;;
14100;SDS011;7127;49.372;8.166;2023-08-17T00:37:35;1.10;;;0.70;;
14100;SDS011;7127;49.372;8.166;2023-08-17T00:40:02;1.07;;;0.77;;
14100;SDS011;7127;49.372;8.166;2023-08-17T00:42:30;0.80;;;0.80;;
14100;SDS011;7127;49.372;8.166;2023-08-17T00:44:56;0.70;;;0.70;;
14100;SDS011;7127;49.372;8.166;2023-08-17T00:47:23;0.97;;;0.80;;
14100;SDS011;7127;49.372;8.166;2023-08-17T00:49:52;0.70;;;0.67;;
14100;SDS011;7127;49.372;8.166;2023-08-17T00:52:20;0.70;;;0.70;;
14100;SDS011;7127;49.372;8.166;2023-08-17T00:54:46;0.77;;;0.77;;
14100;SDS011;7127;49.372;8.166;2023-08-17T00:57:13;1.30;;;0.80;;
14100;SDS011;7127;49.372;8.166;2023-08-17T00:59:40;0.80;;;0.70;;
14100;SDS011;7127;49.372;8.166;2023-08-17T01:02:07;0.80;;;0.80;;
14100;SDS011;7127;49.372;8.166;2023-08-17T01:04:35;1.27;;;0.90;;
14100;SDS011;7127;49.372;8.166;2023-08-17T01:07:03;0.67;;;0.67;;
14100;SDS011;7127;49.372;8.166;2023-08-17T01:09:30;0.77;;;0.70;;
14100;SDS011;7127;49.372;8.166;2023-08-17T01:11:58;0.70;;;0.70;;
14100;SDS011;7127;49.372;8.166;2023-08-17T01:14:32;1.27;;;0.80;;
14100;SDS011;7127;49.372;8.166;2023-08-17T01:17:06;0.70;;;0.70;;
14100;SDS011;7127;49.372;8.166;2023-08-17T01:19:40;1.07;;;0.80;;
14100;SDS011;7127;49.372;8.166;2023-08-17T01:22:11;1.00;;;0.80;;
14100;SDS011;7127;49.372;8.166;2023-08-17T01:24:42;0.90;;;0.90;;
14100;SDS011;7127;49.372;8.166;2023-08-17T01:27:09;0.60;;;0.60;;
14100;SDS011;7127;49.372;8.166;2023-08-17T01:29:36;0.80;;;0.80;;
14100;SDS011;7127;49.372;8.166;2023-08-17T01:32:03;0.70;;;0.70;;
14100;SDS011;7127;49.372;8.166;2023-08-17T01:34:39;0.70;;;0.70;;
14100;SDS011;7127;49.372;8.166;2023-08-17T01:37:10;0.70;;;0.70;;
14100;SDS011;7127;49.372;8.166;2023-08-17T01:39:43;0.73;;;0.70;;
14100;SDS011;7127;49.372;8.166;2023-08-17T01:42:16;0.70;;;0.70;;
14100;SDS011;7127;49.372;8.166;2023-08-17T01:44:43;0.80;;;0.77;;
14100;SDS011;7127;49.372;8.166;2023-08-17T01:47:11;0.80;;;0.80;;
14100;SDS011;7127;49.372;8.166;2023-08-17T01:49:38;0.70;;;0.70;;
14100;SDS011;7127;49.372;8.166;2023-08-17T01:52:05;0.70;;;0.70;;
14100;SDS011;7127;49.372;8.166;2023-08-17T01:54:32;0.70;;;0.70;;
14100;SDS011;7127;49.372;8.166;2023-08-17T01:57:00;1.03;;;0.93;;
14100;SDS011;7127;49.372;8.166;2023-08-17T01:59:27;1.47;;;0.70;;
14100;SDS011;7127;49.372;8.166;2023-08-17T02:01:54;0.80;;;0.80;;
14100;SDS011;7127;49.372;8.166;2023-08-17T02:04:21;0.70;;;0.70;;
14100;SDS011;7127;49.372;8.166;2023-08-17T02:06:48;0.97;;;0.90;;
14100;SDS011;7127;49.372;8.166;2023-08-17T02:09:14;1.00;;;0.90;;
14100;SDS011;7127;49.372;8.166;2023-08-17T02:11:42;0.97;;;0.97;;
14100;SDS011;7127;49.372;8.166;2023-08-17T02:14:10;0.60;;;0.60;;
14100;SDS011;7127;49.372;8.166;2023-08-17T02:16:37;1.10;;;0.93;;
14100;SDS011;7127;49.372;8.166;2023-08-17T02:19:04;0.63;;;0.63;;
14100;SDS011;7127;49.372;8.166;2023-08-17T02:21:31;0.90;;;0.90;;
14100;SDS011;7127;49.372;8.166;2023-08-17T02:23:58;0.80;;;0.80;;
14100;SDS011;7127;49.372;8.166;2023-08-17T02:26:24;1.00;;;1.00;;
14100;SDS011;7127;49.372;8.166;2023-08-17T02:28:51;1.10;;;0.80;;
14100;SDS011;7127;49.372;8.166;2023-08-17T02:31:19;0.80;;;0.80;;
14100;SDS011;7127;49.372;8.166;2023-08-17T02:33:46;1.10;;;0.87;;
14100;SDS011;7127;49.372;8.166;2023-08-17T02:36:13;0.83;;;0.83;;
14100;SDS011;7127;49.372;8.166;2023-08-17T02:38:40;0.73;;;0.73;;
14100;SDS011;7127;49.372;8.166;2023-08-17T02:41:07;0.90;;;0.90;;
14100;SDS011;7127;49.372;8.166;2023-08-17T02:43:34;2.03;;;0.90;;
14100;SDS011;7127;49.372;8.166;2023-08-17T02:46:00;0.83;;;0.80;;
14100;SDS011;7127;49.372;8.166;2023-08-17T02:48:30;0.80;;;0.77;;
14100;SDS011;7127;49.372;8.166;2023-08-17T02:50:56;1.00;;;0.80;;
14100;SDS011;7127;49.372;8.166;2023-08-17T02:53:23;0.80;;;0.80;;
14100;SDS011;7127;49.372;8.166;2023-08-17T02:55:50;0.70;;;0.70;;
14100;SDS011;7127;49.372;8.166;2023-08-17T02:58:17;0.70;;;0.70;;
14100;SDS011;7127;49.372;8.166;2023-08-17T03:00:44;0.87;;;0.87;;
14100;SDS011;7127;49.372;8.166;2023-08-17T03:03:10;0.77;;;0.73;;
14100;SDS011;7127;49.372;8.166;2023-08-17T03:05:39;1.20;;;1.10;;
14100;SDS011;7127;49.372;8.166;2023-08-17T03:08:05;0.80;;;0.80;;
14100;SDS011;7127;49.372;8.166;2023-08-17T03:10:32;1.13;;;0.90;;
14100;SDS011;7127;49.372;8.166;2023-08-17T03:12:59;1.37;;;0.90;;
14100;SDS011;7127;49.372;8.166;2023-08-17T03:15:26;1.00;;;0.90;;
14100;SDS011;7127;49.372;8.166;2023-08-17T03:17:53;1.13;;;1.00;;
14100;SDS011;7127;49.372;8.166;2023-08-17T03:20:20;0.80;;;0.80;;
14100;SDS011;7127;49.372;8.166;2023-08-17T03:22:48;0.80;;;0.80;;
14100;SDS011;7127;49.372;8.166;2023-08-17T03:25:15;1.17;;;0.90;;
14100;SDS011;7127;49.372;8.166;2023-08-17T03:27:43;0.80;;;0.80;;
14100;SDS011;7127;49.372;8.166;2023-08-17T03:30:10;0.80;;;0.80;;
14100;SDS011;7127;49.372;8.166;2023-08-17T03:32:37;0.70;;;0.70;;
14100;SDS011;7127;49.372;8.166;2023-08-17T03:35:04;0.90;;;0.90;;
14100;SDS011;7127;49.372;8.166;2023-08-17T03:37:32;1.03;;;0.80;;
14100;SDS011;7127;49.372;8.166;2023-08-17T03:40:00;0.80;;;0.80;;
14100;SDS011;7127;49.372;8.166;2023-08-17T03:42:27;0.80;;;0.80;;
14100;SDS011;7127;49.372;8.166;2023-08-17T03:44:54;0.90;;;0.90;;
14100;SDS011;7127;49.372;8.166;2023-08-17T03:47:21;1.50;;;0.80;;
14100;SDS011;7127;49.372;8.166;2023-08-17T03:49:48;1.00;;;1.00;;
14100;SDS011;7127;49.372;8.166;2023-08-17T03:52:14;0.87;;;0.77;;
14100;SDS011;7127;49.372;8.166;2023-08-17T03:54:41;0.80;;;0.80;;
14100;SDS011;7127;49.372;8.166;2023-08-17T03:57:10;0.90;;;0.90;;
14100;SDS011;7127;49.372;8.166;2023-08-17T03:59:38;1.13;;;0.83;;
14100;SDS011;7127;49.372;8.166;2023-08-17T04:02:04;1.67;;;0.90;;
14100;SDS011;7127;49.372;8.166;2023-08-17T04:04:31;1.53;;;0.90;;
14100;SDS011;7127;49.372;8.166;2023-08-17T04:06:58;1.07;;;0.97;;
14100;SDS011;7127;49.372;8.166;2023-08-17T04:09:25;0.97;;;0.97;;
14100;SDS011;7127;49.372;8.166;2023-08-17T04:11:52;1.10;;;0.90;;
14100;SDS011;7127;49.372;8.166;2023-08-17T04:14:21;1.00;;;0.90;;
14100;SDS011;7127;49.372;8.166;2023-08-17T04:16:48;1.17;;;1.07;;
14100;SDS011;7127;49.372;8.166;2023-08-17T04:19:14;1.00;;;0.90;;
14100;SDS011;7127;49.372;8.166;2023-08-17T04:21:41;1.37;;;1.00;;
14100;SDS011;7127;49.372;8.166;2023-08-17T04:24:08;1.57;;;1.00;;
14100;SDS011;7127;49.372;8.166;2023-08-17T04:26:35;0.83;;;0.80;;
14100;SDS011;7127;49.372;8.166;2023-08-17T04:29:02;0.90;;;0.90;;
14100;SDS011;7127;49.372;8.166;2023-08-17T04:31:30;1.50;;;1.23;;
14100;SDS011;7127;49.372;8.166;2023-08-17T04:33:57;1.17;;;0.93;;
14100;SDS011;7127;49.372;8.166;2023-08-17T04:36:24;1.00;;;0.90;;
14100;SDS011;7127;49.372;8.166;2023-08-17T04:38:50;1.17;;;1.03;;
14100;SDS011;7127;49.372;8.166;2023-08-17T04:41:17;1.10;;;1.03;;
14100;SDS011;7127;49.372;8.166;2023-08-17T04:43:44;1.10;;;1.00;;
14100;SDS011;7127;49.372;8.166;2023-08-17T04:46:12;1.30;;;1.20;;
14100;SDS011;7127;49.372;8.166;2023-08-17T04:48:41;1.80;;;1.00;;
14100;SDS011;7127;49.372;8.166;2023-08-17T04:51:07;1.37;;;0.90;;
14100;SDS011;7127;49.372;8.166;2023-08-17T04:53:34;1.87;;;0.97;;
14100;SDS011;7127;49.372;8.166;2023-08-17T04:56:02;0.80;;;0.80;;
14100;SDS011;7127;49.372;8.166;2023-08-17T04:58:29;1.07;;;0.80;;
14100;SDS011;7127;49.372;8.166;2023-08-17T05:00:56;0.87;;;0.87;;
14100;SDS011;7127;49.372;8.166;2023-08-17T05:03:23;1.30;;;0.90;;
14100;SDS011;7127;49.372;8.166;2023-08-17T05:05:52;1.00;;;0.90;;
14100;SDS011;7127;49.372;8.166;2023-08-17T05:08:19;0.90;;;0.90;;
14100;SDS011;7127;49.372;8.166;2023-08-17T05:10:47;1.00;;;1.00;;
14100;SDS011;7127;49.372;8.166;2023-08-17T05:13:14;1.17;;;0.90;;
14100;SDS011;7127;49.372;8.166;2023-08-17T05:15:40;1.43;;;1.13;;
14100;SDS011;7127;49.372;8.166;2023-08-17T05:18:07;1.70;;;1.23;;
14100;SDS011;7127;49.372;8.166;2023-08-17T05:20:34;1.20;;;1.10;;
14100;SDS011;7127;49.372;8.166;2023-08-17T05:23:03;1.13;;;1.03;;
14100;SDS011;7127;49.372;8.166;2023-08-17T05:25:30;1.10;;;1.00;;
14100;SDS011;7127;49.372;8.166;2023-08-17T05:27:57;2.33;;;1.00;;
14100;SDS011;7127;49.372;8.166;2023-08-17T05:30:23;1.00;;;1.00;;
14100;SDS011;7127;49.372;8.166;2023-08-17T05:32:50;2.20;;;1.10;;
14100;SDS011;7127;49.372;8.166;2023-08-17T05:35:17;1.00;;;1.00;;
14100;SDS011;7127;49.372;8.166;2023-08-17T05:37:44;1.20;;;1.10;;
14100;SDS011;7127;49.372;8.166;2023-08-17T05:40:12;1.20;;;1.10;;
14100;SDS011;7127;49.372;8.166;2023-08-17T05:42:39;1.10;;;1.00;;
14100;SDS011;7127;49.372;8.166;2023-08-17T05:45:06;1.93;;;1.13;;
14100;SDS011;7127;49.372;8.166;2023-08-17T05:47:34;2.43;;;1.63;;
14100;SDS011;7127;49.372;8.166;2023-08-17T05:50:01;2.13;;;1.60;;
14100;SDS011;7127;49.372;8.166;2023-08-17T05:52:28;3.27;;;1.87;;
14100;SDS011;7127;49.372;8.166;2023-08-17T05:54:55;1.93;;;1.77;;
14100;SDS011;7127;49.372;8.166;2023-08-17T05:57:23;2.57;;;2.23;;
14100;SDS011;7127;49.372;8.166;2023-08-17T05:59:50;2.77;;;2.03;;
14100;SDS011;7127;49.372;8.166;2023-08-17T06:02:17;2.30;;;2.03;;
14100;SDS011;7127;49.372;8.166;2023-08-17T06:04:43;2.30;;;2.10;;
14100;SDS011;7127;49.372;8.166;2023-08-17T06:07:11;2.17;;;1.93;;
14100;SDS011;7127;49.372;8.166;2023-08-17T06:09:38;2.20;;;2.00;;
14100;SDS011;7127;49.372;8.166;2023-08-17T06:12:05;1.70;;;1.60;;
14100;SDS011;7127;49.372;8.166;2023-08-17T06:14:33;2.13;;;1.93;;
14100;SDS011;7127;49.372;8.166;2023-08-17T06:17:00;2.47;;;2.27;;
14100;SDS011;7127;49.372;8.166;2023-08-17T06:19:27;2.40;;;2.20;;
14100;SDS011;7127;49.372;8.166;2023-08-17T06:21:54;2.43;;;2.23;;
14100;SDS011;7127;49.372;8.166;2023-08-17T06:24:21;2.63;;;2.43;;
14100;SDS011;7127;49.372;8.166;2023-08-17T06:26:47;3.67;;;3.03;;
14100;SDS011;7127;49.372;8.166;2023-08-17T06:29:14;3.20;;;2.83;;
14100;SDS011;7127;49.372;8.166;2023-08-17T06:31:43;3.83;;;3.20;;
14100;SDS011;7127;49.372;8.166;2023-08-17T06:34:09;4.33;;;3.40;;
14100;SDS011;7127;49.372;8.166;2023-08-17T06:36:37;2.93;;;2.60;;
14100;SDS011;7127;49.372;8.166;2023-08-17T06:39:05;3.97;;;3.17;;
14100;SDS011;7127;49.372;8.166;2023-08-17T06:41:33;3.97;;;3.57;;
14100;SDS011;7127;49.372;8.166;2023-08-17T06:44:00;5.17;;;3.20;;
14100;SDS011;7127;49.372;8.166;2023-08-17T06:46:27;3.57;;;3.23;;
14100;SDS011;7127;49.372;8.166;2023-08-17T06:48:55;3.43;;;3.03;;
14100;SDS011;7127;49.372;8.166;2023-08-17T06:51:22;2.87;;;2.63;;
14100;SDS011;7127;49.372;8.166;2023-08-17T06:53:49;3.87;;;2.80;;
14100;SDS011;7127;49.372;8.166;2023-08-17T06:56:16;3.23;;;2.83;;
14100;SDS011;7127;49.372;8.166;2023-08-17T06:58:42;2.87;;;2.50;;
14100;SDS011;7127;49.372;8.166;2023-08-17T07:01:09;3.10;;;2.53;;
14100;SDS011;7127;49.372;8.166;2023-08-17T07:03:36;2.97;;;2.77;;
14100;SDS011;7127;49.372;8.166;2023-08-17T07:06:04;3.30;;;2.87;;
14100;SDS011;7127;49.372;8.166;2023-08-17T07:08:31;3.13;;;2.83;;
14100;SDS011;7127;49.372;8.166;2023-08-17T07:10:58;2.90;;;2.60;;
14100;SDS011;7127;49.372;8.166;2023-08-17T07:13:25;3.13;;;2.83;;
14100;SDS011;7127;49.372;8.166;2023-08-17T07:15:52;3.70;;;3.13;;
14100;SDS011;7127;49.372;8.166;2023-08-17T07:18:19;4.03;;;3.20;;
14100;SDS011;7127;49.372;8.166;2023-08-17T07:20:46;3.70;;;3.20;;
14100;SDS011;7127;49.372;8.166;2023-08-17T07:23:15;3.30;;;3.00;;
14100;SDS011;7127;49.372;8.166;2023-08-17T07:25:42;2.90;;;2.50;;
14100;SDS011;7127;49.372;8.166;2023-08-17T07:28:09;2.97;;;2.60;;
14100;SDS011;7127;49.372;8.166;2023-08-17T07:30:36;2.80;;;2.60;;
14100;SDS011;7127;49.372;8.166;2023-08-17T07:33:04;3.40;;;2.80;;
14100;SDS011;7127;49.372;8.166;2023-08-17T07:35:30;2.77;;;2.50;;
14100;SDS011;7127;49.372;8.166;2023-08-17T07:37:57;2.43;;;2.17;;
14100;SDS011;7127;49.372;8.166;2023-08-17T07:40:25;3.47;;;2.40;;
14100;SDS011;7127;49.372;8.166;2023-08-17T07:42:52;2.43;;;2.23;;
14100;SDS011;7127;49.372;8.166;2023-08-17T07:45:19;3.77;;;2.73;;
14100;SDS011;7127;49.372;8.166;2023-08-17T07:47:46;5.37;;;2.93;;
14100;SDS011;7127;49.372;8.166;2023-08-17T07:50:13;3.13;;;2.50;;
14100;SDS011;7127;49.372;8.166;2023-08-17T07:52:40;2.73;;;2.37;;
14100;SDS011;7127;49.372;8.166;2023-08-17T07:55:07;2.60;;;2.40;;
14100;SDS011;7127;49.372;8.166;2023-08-17T07:57:35;3.00;;;2.50;;
14100;SDS011;7127;49.372;8.166;2023-08-17T08:00:02;3.13;;;2.27;;
14100;SDS011;7127;49.372;8.166;2023-08-17T08:02:30;2.87;;;2.57;;
14100;SDS011;7127;49.372;8.166;2023-08-17T08:04:57;2.67;;;2.47;;
14100;SDS011;7127;49.372;8.166;2023-08-17T08:07:23;2.77;;;2.50;;
14100;SDS011;7127;49.372;8.166;2023-08-17T08:09:50;4.00;;;2.80;;
14100;SDS011;7127;49.372;8.166;2023-08-17T08:12:17;2.80;;;2.50;;
14100;SDS011;7127;49.372;8.166;2023-08-17T08:14:45;3.03;;;2.67;;
14100;SDS011;7127;49.372;8.166;2023-08-17T08:17:13;2.57;;;2.37;;
14100;SDS011;7127;49.372;8.166;2023-08-17T08:19:40;3.10;;;2.80;;
14100;SDS011;7127;49.372;8.166;2023-08-17T08:22:07;2.73;;;2.40;;
14100;SDS011;7127;49.372;8.166;2023-08-17T08:24:37;2.70;;;2.47;;
14100;SDS011;7127;49.372;8.166;2023-08-17T08:27:06;2.60;;;2.40;;
14100;SDS011;7127;49.372;8.166;2023-08-17T08:29:33;3.23;;;2.60;;
14100;SDS011;7127;49.372;8.166;2023-08-17T08:32:02;2.63;;;2.43;;
14100;SDS011;7127;49.372;8.166;2023-08-17T08:34:29;2.73;;;1.83;;
14100;SDS011;7127;49.372;8.166;2023-08-17T08:36:56;3.03;;;2.30;;
14100;SDS011;7127;49.372;8.166;2023-08-17T08:39:25;2.30;;;2.10;;
14100;SDS011;7127;49.372;8.166;2023-08-17T08:41:52;2.40;;;2.20;;
14100;SDS011;7127;49.372;8.166;2023-08-17T08:44:19;2.40;;;1.92;;
14100;SDS011;7127;49.372;8.166;2023-08-17T08:46:46;2.37;;;2.00;;
14100;SDS011;7127;49.372;8.166;2023-08-17T08:49:17;4.60;;;1.83;;
14100;SDS011;7127;49.372;8.166;2023-08-17T08:51:48;2.00;;;1.90;;
14100;SDS011;7127;49.372;8.166;2023-08-17T08:54:18;1.80;;;1.70;;
14100;SDS011;7127;49.372;8.166;2023-08-17T08:56:48;2.10;;;1.80;;
14100;SDS011;7127;49.372;8.166;2023-08-17T08:59:20;2.07;;;1.80;;
14100;SDS011;7127;49.372;8.166;2023-08-17T09:01:48;2.05;;;1.73;;
14100;SDS011;7127;49.372;8.166;2023-08-17T09:04:17;1.92;;;1.80;;
14100;SDS011;7127;49.372;8.166;2023-08-17T09:06:44;2.07;;;1.57;;
14100;SDS011;7127;49.372;8.166;2023-08-17T09:09:11;2.80;;;2.03;;
14100;SDS011;7127;49.372;8.166;2023-08-17T09:11:42;2.20;;;2.00;;
14100;SDS011;7127;49.372;8.166;2023-08-17T09:14:09;1.85;;;1.70;;
14100;SDS011;7127;49.372;8.166;2023-08-17T09:16:35;1.55;;;1.45;;
14100;SDS011;7127;49.372;8.166;2023-08-17T09:19:02;1.77;;;1.67;;
14100;SDS011;7127;49.372;8.166;2023-08-17T09:21:32;1.98;;;1.77;;
14100;SDS011;7127;49.372;8.166;2023-08-17T09:23:59;2.55;;;1.70;;
14100;SDS011;7127;49.372;8.166;2023-08-17T09:26:30;2.05;;;1.80;;
14100;SDS011;7127;49.372;8.166;2023-08-17T09:28:57;2.78;;;2.00;;
14100;SDS011;7127;49.372;8.166;2023-08-17T09:31:27;1.75;;;1.60;;
14100;SDS011;7127;49.372;8.166;2023-08-17T09:33:57;1.65;;;1.55;;
14100;SDS011;7127;49.372;8.166;2023-08-17T09:36:25;1.55;;;1.45;;
14100;SDS011;7127;49.372;8.166;2023-08-17T09:38:53;1.70;;;1.50;;
14100;SDS011;7127;49.372;8.166;2023-08-17T09:41:22;1.55;;;1.45;;
14100;SDS011;7127;49.372;8.166;2023-08-17T09:43:49;1.70;;;1.60;;
14100;SDS011;7127;49.372;8.166;2023-08-17T09:46:15;1.63;;;1.52;;
14100;SDS011;7127;49.372;8.166;2023-08-17T09:48:43;1.55;;;1.45;;
14100;SDS011;7127;49.372;8.166;2023-08-17T09:51:14;1.48;;;1.38;;
14100;SDS011;7127;49.372;8.166;2023-08-17T09:53:41;2.10;;;1.50;;
14100;SDS011;7127;49.372;8.166;2023-08-17T09:56:10;1.67;;;1.40;;
14100;SDS011;7127;49.372;8.166;2023-08-17T09:58:38;1.90;;;1.70;;
14100;SDS011;7127;49.372;8.166;2023-08-17T10:01:06;1.75;;;1.50;;
14100;SDS011;7127;49.372;8.166;2023-08-17T10:03:35;1.50;;;1.40;;
14100;SDS011;7127;49.372;8.166;2023-08-17T10:06:05;1.40;;;1.30;;
14100;SDS011;7127;49.372;8.166;2023-08-17T10:08:36;1.85;;;1.30;;
14100;SDS011;7127;49.372;8.166;2023-08-17T10:11:09;1.60;;;1.50;;
14100;SDS011;7127;49.372;8.166;2023-08-17T10:13:40;1.73;;;1.50;;
14100;SDS011;7127;49.372;8.166;2023-08-17T10:16:15;1.63;;;1.40;;
14100;SDS011;7127;49.372;8.166;2023-08-17T10:18:50;1.50;;;1.40;;
14100;SDS011;7127;49.372;8.166;2023-08-17T10:21:21;1.40;;;1.30;;
14100;SDS011;7127;49.372;8.166;2023-08-17T10:23:53;1.67;;;1.33;;
14100;SDS011;7127;49.372;8.166;2023-08-17T10:26:22;1.58;;;1.48;;
14100;SDS011;7127;49.372;8.166;2023-08-17T10:28:50;1.70;;;1.60;;
14100;SDS011;7127;49.372;8.166;2023-08-17T10:31:19;1.40;;;1.30;;
14100;SDS011;7127;49.372;8.166;2023-08-17T10:33:47;1.40;;;1.27;;
14100;SDS011;7127;49.372;8.166;2023-08-17T10:36:14;2.15;;;1.70;;
14100;SDS011;7127;49.372;8.166;2023-08-17T10:38:42;2.17;;;1.38;;
14100;SDS011;7127;49.372;8.166;2023-08-17T10:41:09;1.88;;;1.60;;
14100;SDS011;7127;49.372;8.166;2023-08-17T10:43:54;1.80;;;1.42;;
14100;SDS011;7127;49.372;8.166;2023-08-17T10:46:21;1.80;;;1.63;;
14100;SDS011;7127;49.372;8.166;2023-08-17T10:49:00;1.85;;;1.67;;
14100;SDS011;7127;49.372;8.166;2023-08-17T10:51:30;2.25;;;1.52;;
14100;SDS011;7127;49.372;8.166;2023-08-17T10:53:58;1.63;;;1.52;;
14100;SDS011;7127;49.372;8.166;2023-08-17T10:56:27;2.78;;;2.03;;
14100;SDS011;7127;49.372;8.166;2023-08-17T10:59:00;1.60;;;1.50;;
14100;SDS011;7127;49.372;8.166;2023-08-17T11:01:34;1.85;;;1.70;;
14100;SDS011;7127;49.372;8.166;2023-08-17T11:04:11;1.50;;;1.40;;
14100;SDS011;7127;49.372;8.166;2023-08-17T11:06:42;1.60;;;1.50;;
14100;SDS011;7127;49.372;8.166;2023-08-17T11:09:09;1.92;;;1.73;;
14100;SDS011;7127;49.372;8.166;2023-08-17T11:11:37;1.50;;;1.40;;
14100;SDS011;7127;49.372;8.166;2023-08-17T11:14:06;1.63;;;1.52;;
14100;SDS011;7127;49.372;8.166;2023-08-17T11:16:32;5.72;;;1.77;;
14100;SDS011;7127;49.372;8.166;2023-08-17T11:19:00;1.65;;;1.55;;
14100;SDS011;7127;49.372;8.166;2023-08-17T11:21:27;1.85;;;1.75;;
14100;SDS011;7127;49.372;8.166;2023-08-17T11:23:55;1.70;;;1.60;;
14100;SDS011;7127;49.372;8.166;2023-08-17T11:26:23;1.48;;;1.38;;
14100;SDS011;7127;49.372;8.166;2023-08-17T11:28:50;1.42;;;1.33;;
14100;SDS011;7127;49.372;8.166;2023-08-17T11:31:19;1.75;;;1.40;;
14100;SDS011;7127;49.372;8.166;2023-08-17T11:33:46;1.75;;;1.60;;
14100;SDS011;7127;49.372;8.166;2023-08-17T11:36:13;2.03;;;1.60;;
14100;SDS011;7127;49.372;8.166;2023-08-17T11:38:40;1.70;;;1.52;;
14100;SDS011;7127;49.372;8.166;2023-08-17T11:41:08;1.80;;;1.70;;
14100;SDS011;7127;49.372;8.166;2023-08-17T11:43:35;2.05;;;1.52;;
14100;SDS011;7127;49.372;8.166;2023-08-17T11:46:03;1.80;;;1.50;;
14100;SDS011;7127;49.372;8.166;2023-08-17T11:48:32;1.40;;;1.30;;
14100;SDS011;7127;49.372;8.166;2023-08-17T11:50:59;1.60;;;1.50;;
14100;SDS011;7127;49.372;8.166;2023-08-17T11:53:32;1.50;;;1.40;;
14100;SDS011;7127;49.372;8.166;2023-08-17T11:55:59;1.60;;;1.50;;
14100;SDS011;7127;49.372;8.166;2023-08-17T11:58:35;1.70;;;1.55;;
14100;SDS011;7127;49.372;8.166;2023-08-17T12:01:03;2.05;;;1.50;;
14100;SDS011;7127;49.372;8.166;2023-08-17T12:03:37;1.48;;;1.38;;
14100;SDS011;7127;49.372;8.166;2023-08-17T12:06:05;1.63;;;1.50;;
14100;SDS011;7127;49.372;8.166;2023-08-17T12:08:32;1.60;;;1.50;;
14100;SDS011;7127;49.372;8.166;2023-08-17T12:11:00;1.80;;;1.70;;
14100;SDS011;7127;49.372;8.166;2023-08-17T12:13:30;1.50;;;1.40;;
14100;SDS011;7127;49.372;8.166;2023-08-17T12:16:01;1.98;;;1.65;;
14100;SDS011;7127;49.372;8.166;2023-08-17T12:18:28;1.50;;;1.40;;
14100;SDS011;7127;49.372;8.166;2023-08-17T12:21:00;6.13;;;1.60;;
14100;SDS011;7127;49.372;8.166;2023-08-17T12:23:27;1.40;;;1.30;;
14100;SDS011;7127;49.372;8.166;2023-08-17T12:25:54;2.05;;;1.73;;
14100;SDS011;7127;49.372;8.166;2023-08-17T12:28:22;2.03;;;1.45;;
14100;SDS011;7127;49.372;8.166;2023-08-17T12:30:56;1.60;;;1.50;;
14100;SDS011;7127;49.372;8.166;2023-08-17T12:33:24;3.33;;;1.60;;
14100;SDS011;7127;49.372;8.166;2023-08-17T12:35:51;1.52;;;1.23;;
14100;SDS011;7127;49.372;8.166;2023-08-17T12:38:19;1.83;;;1.40;;
14100;SDS011;7127;49.372;8.166;2023-08-17T12:40:48;2.00;;;1.40;;
14100;SDS011;7127;49.372;8.166;2023-08-17T12:43:14;1.60;;;1.50;;
14100;SDS011;7127;49.372;8.166;2023-08-17T12:45:41;1.35;;;1.25;;
14100;SDS011;7127;49.372;8.166;2023-08-17T12:48:08;1.50;;;1.40;;
14100;SDS011;7127;49.372;8.166;2023-08-17T12:50:35;2.55;;;1.30;;
14100;SDS011;7127;49.372;8.166;2023-08-17T12:53:02;1.42;;;1.33;;
14100;SDS011;7127;49.372;8.166;2023-08-17T12:55:30;1.58;;;1.45;;
14100;SDS011;7127;49.372;8.166;2023-08-17T12:57:57;1.33;;;1.23;;
14100;SDS011;7127;49.372;8.166;2023-08-17T13:00:24;1.60;;;1.50;;
14100;SDS011;7127;49.372;8.166;2023-08-17T13:02:50;2.80;;;1.50;;
14100;SDS011;7127;49.372;8.166;2023-08-17T13:05:17;1.60;;;1.50;;
14100;SDS011;7127;49.372;8.166;2023-08-17T13:07:44;1.67;;;1.58;;
14100;SDS011;7127;49.372;8.166;2023-08-17T13:10:11;1.52;;;1.30;;
14100;SDS011;7127;49.372;8.166;2023-08-17T13:12:39;1.50;;;1.40;;
14100;SDS011;7127;49.372;8.166;2023-08-17T13:15:06;2.88;;;1.73;;
14100;SDS011;7127;49.372;8.166;2023-08-17T13:17:34;2.35;;;1.63;;
14100;SDS011;7127;49.372;8.166;2023-08-17T13:20:00;1.90;;;1.75;;
14100;SDS011;7127;49.372;8.166;2023-08-17T13:22:28;1.80;;;1.50;;
14100;SDS011;7127;49.372;8.166;2023-08-17T13:24:55;1.60;;;1.50;;
14100;SDS011;7127;49.372;8.166;2023-08-17T13:27:22;1.80;;;1.70;;
14100;SDS011;7127;49.372;8.166;2023-08-17T13:29:50;1.50;;;1.40;;
14100;SDS011;7127;49.372;8.166;2023-08-17T13:32:17;1.40;;;1.30;;
14100;SDS011;7127;49.372;8.166;2023-08-17T13:34:44;1.65;;;1.55;;
14100;SDS011;7127;49.372;8.166;2023-08-17T13:37:11;2.45;;;1.52;;
14100;SDS011;7127;49.372;8.166;2023-08-17T13:39:38;1.75;;;1.48;;
14100;SDS011;7127;49.372;8.166;2023-08-17T13:42:05;1.50;;;1.40;;
14100;SDS011;7127;49.372;8.166;2023-08-17T13:44:32;1.55;;;1.40;;
14100;SDS011;7127;49.372;8.166;2023-08-17T13:47:00;1.40;;;1.30;;
14100;SDS011;7127;49.372;8.166;2023-08-17T13:49:27;1.30;;;1.20;;
14100;SDS011;7127;49.372;8.166;2023-08-17T13:51:54;1.33;;;1.23;;
14100;SDS011;7127;49.372;8.166;2023-08-17T13:54:21;4.15;;;1.95;;
14100;SDS011;7127;49.372;8.166;2023-08-17T13:56:48;2.88;;;1.70;;
14100;SDS011;7127;49.372;8.166;2023-08-17T13:59:15;1.67;;;1.55;;
14100;SDS011;7127;49.372;8.166;2023-08-17T14:01:42;1.90;;;1.58;;
14100;SDS011;7127;49.372;8.166;2023-08-17T14:04:10;1.88;;;1.42;;
14100;SDS011;7127;49.372;8.166;2023-08-17T14:06:37;1.45;;;1.35;;
14100;SDS011;7127;49.372;8.166;2023-08-17T14:09:04;1.60;;;1.50;;
14100;SDS011;7127;49.372;8.166;2023-08-17T14:11:31;1.63;;;1.30;;
14100;SDS011;7127;49.372;8.166;2023-08-17T14:13:58;1.50;;;1.40;;
14100;SDS011;7127;49.372;8.166;2023-08-17T14:16:25;1.40;;;1.30;;
14100;SDS011;7127;49.372;8.166;2023-08-17T14:18:52;2.60;;;1.65;;
14100;SDS011;7127;49.372;8.166;2023-08-17T14:21:21;1.50;;;1.40;;
14100;SDS011;7127;49.372;8.166;2023-08-17T14:23:48;1.98;;;1.60;;
14100;SDS011;7127;49.372;8.166;2023-08-17T14:26:15;1.80;;;1.70;;
14100;SDS011;7127;49.372;8.166;2023-08-17T14:28:42;1.67;;;1.50;;
14100;SDS011;7127;49.372;8.166;2023-08-17T14:31:09;1.95;;;1.42;;
14100;SDS011;7127;49.372;8.166;2023-08-17T14:33:36;1.73;;;1.63;;
14100;SDS011;7127;49.372;8.166;2023-08-17T14:36:03;1.70;;;1.60;;
14100;SDS011;7127;49.372;8.166;2023-08-17T14:38:32;1.98;;;1.88;;
14100;SDS011;7127;49.372;8.166;2023-08-17T14:41:00;1.60;;;1.50;;
14100;SDS011;7127;49.372;8.166;2023-08-17T14:43:29;1.80;;;1.70;;
14100;SDS011;7127;49.372;8.166;2023-08-17T14:45:56;2.03;;;1.50;;
14100;SDS011;7127;49.372;8.166;2023-08-17T14:48:23;1.60;;;1.50;;
14100;SDS011;7127;49.372;8.166;2023-08-17T14:50:49;1.63;;;1.50;;
14100;SDS011;7127;49.372;8.166;2023-08-17T14:53:16;2.20;;;1.60;;
14100;SDS011;7127;49.372;8.166;2023-08-17T14:55:45;2.22;;;1.80;;
14100;SDS011;7127;49.372;8.166;2023-08-17T14:58:12;1.60;;;1.50;;
14100;SDS011;7127;49.372;8.166;2023-08-17T15:00:40;1.80;;;1.60;;
14100;SDS011;7127;49.372;8.166;2023-08-17T15:03:07;1.65;;;1.55;;